createdAt,value
2018-02-05T00:01:45.481Z,68.70
2018-02-05T00:04:13.833Z,68.60
2018-02-05T00:06:41.396Z,68.60
2018-02-05T00:09:08.989Z,68.40
2018-02-05T00:11:37.320Z,68.90
2018-02-05T00:14:04.909Z,68.80
2018-02-05T00:16:32.473Z,69.20
2018-02-05T00:19:00.122Z,68.90
2018-02-05T00:21:27.692Z,69.00
2018-02-05T00:23:55.286Z,68.90
2018-02-05T00:26:22.853Z,68.40
2018-02-05T00:28:50.432Z,68.90
2018-02-05T00:31:17.996Z,68.10
2018-02-05T00:33:45.590Z,68.80
2018-02-05T00:36:13.925Z,68.10
2018-02-05T00:38:41.522Z,68.10
2018-02-05T00:41:09.852Z,68.40
2018-02-05T00:43:37.440Z,68.40
2018-02-05T00:46:05.009Z,67.90
2018-02-05T00:48:33.546Z,69.00
2018-02-05T00:51:01.112Z,68.20
2018-02-05T00:53:28.713Z,68.70
2018-02-05T00:55:56.300Z,69.50
2018-02-05T00:58:23.865Z,70.40
2018-02-05T01:00:51.637Z,70.00
2018-02-05T01:03:19.202Z,69.40
2018-02-05T01:05:46.804Z,70.30
2018-02-05T01:08:14.372Z,69.00
2018-02-05T01:10:41.953Z,68.90
2018-02-05T01:13:09.535Z,70.80
2018-02-05T01:15:37.124Z,70.10
2018-02-05T01:18:04.701Z,70.20
2018-02-05T01:20:32.296Z,69.20
2018-02-05T01:22:59.872Z,69.70
2018-02-05T01:25:27.463Z,71.00
2018-02-05T01:27:55.028Z,69.30
2018-02-05T01:30:22.621Z,70.70
2018-02-05T01:32:50.192Z,69.00
2018-02-05T01:35:18.544Z,69.10
2018-02-05T01:37:46.881Z,69.10
2018-02-05T01:40:14.474Z,68.90
2018-02-05T01:42:42.036Z,69.20
2018-02-05T01:45:10.056Z,68.60
2018-02-05T01:47:37.630Z,69.50
2018-02-05T01:50:05.229Z,69.00
2018-02-05T01:52:32.792Z,69.00
2018-02-05T01:55:00.389Z,69.70
2018-02-05T01:57:27.957Z,69.40
2018-02-05T01:59:55.554Z,70.50
2018-02-05T02:02:23.119Z,69.30
2018-02-05T02:04:50.692Z,69.50
2018-02-05T02:07:18.288Z,68.90
2018-02-05T02:09:45.860Z,69.20
2018-02-05T02:12:13.447Z,69.00
2018-02-05T02:14:41.012Z,69.80
2018-02-05T02:17:08.604Z,68.60
2018-02-05T02:19:36.181Z,68.40
2018-02-05T02:22:03.765Z,68.50
2018-02-05T02:24:31.341Z,68.40
2018-02-05T02:26:59.661Z,68.00
2018-02-05T02:29:27.416Z,68.70
2018-02-05T02:31:55.009Z,69.60
2018-02-05T02:34:22.580Z,70.30
2018-02-05T02:36:50.172Z,69.60
2018-02-05T02:39:18.502Z,70.00
2018-02-05T02:41:46.101Z,69.90
2018-02-05T02:44:13.680Z,69.30
2018-02-05T02:46:41.282Z,70.10
2018-02-05T02:49:08.849Z,69.10
2018-02-05T02:51:36.449Z,69.60
2018-02-05T02:54:04.786Z,69.60
2018-02-05T02:56:32.393Z,69.60
2018-02-05T02:59:00.725Z,69.60
2018-02-05T03:01:28.312Z,69.40
2018-02-05T03:03:55.882Z,70.30
2018-02-05T03:06:24.250Z,70.80
2018-02-05T03:08:52.589Z,69.60
2018-02-05T03:11:20.176Z,69.50
2018-02-05T03:13:47.737Z,71.20
2018-02-05T03:16:15.339Z,71.10
2018-02-05T03:18:42.899Z,70.10
2018-02-05T03:21:10.481Z,70.60
2018-02-05T03:23:38.078Z,70.20
2018-02-05T03:26:05.640Z,69.40
2018-02-05T03:28:33.229Z,69.30
2018-02-05T03:31:00.798Z,69.90
2018-02-05T03:33:28.389Z,69.50
2018-02-05T03:35:55.956Z,69.80
2018-02-05T03:38:23.548Z,70.00
2018-02-05T03:40:51.888Z,71.50
2018-02-05T03:43:19.477Z,71.40
2018-02-05T03:45:47.817Z,71.00
2018-02-05T03:48:15.416Z,70.90
2018-02-05T03:50:42.993Z,70.40
2018-02-05T03:53:10.777Z,70.90
2018-02-05T03:55:38.353Z,71.70
2018-02-05T03:58:05.945Z,71.90
2018-02-05T04:00:33.516Z,71.10
2018-02-05T04:03:01.933Z,72.20
2018-02-05T04:05:29.502Z,72.10
2018-02-05T04:07:57.097Z,71.50
2018-02-05T04:10:24.661Z,70.80
2018-02-05T04:12:52.257Z,72.50
2018-02-05T04:15:19.820Z,72.40
2018-02-05T04:17:47.413Z,72.70
2018-02-05T04:20:15.234Z,71.50
2018-02-05T04:22:42.812Z,71.40
2018-02-05T04:25:10.368Z,72.30
2018-02-05T04:27:38.065Z,72.50
2018-02-05T04:30:05.722Z,73.00
2018-02-05T04:32:33.317Z,72.80
2018-02-05T04:35:00.889Z,72.50
2018-02-05T04:37:28.668Z,72.00
2018-02-05T04:39:56.233Z,71.10
2018-02-05T04:42:23.820Z,71.10
2018-02-05T04:44:52.168Z,71.20
2018-02-05T04:47:19.733Z,71.10
2018-02-05T04:49:47.397Z,71.50
2018-02-05T04:52:14.956Z,71.90
2018-02-05T04:54:42.906Z,71.70
2018-02-05T04:57:10.580Z,72.00
2018-02-05T04:59:38.164Z,71.80
2018-02-05T05:02:05.729Z,72.70
2018-02-05T05:04:33.403Z,71.70
2018-02-05T05:07:00.974Z,71.90
2018-02-05T05:09:31.831Z,71.70
2018-02-05T05:11:59.735Z,72.20
2018-02-05T05:14:28.730Z,71.70
2018-02-05T05:16:56.890Z,71.00
2018-02-05T05:19:25.297Z,71.40
2018-02-05T05:21:52.861Z,71.40
2018-02-05T05:24:20.468Z,70.70
2018-02-05T05:26:48.038Z,71.10
2018-02-05T05:29:15.634Z,70.70
2018-02-05T05:31:43.210Z,70.90
2018-02-05T05:34:11.574Z,70.30
2018-02-05T05:36:39.145Z,70.30
2018-02-05T05:39:06.732Z,69.80
2018-02-05T05:41:34.303Z,70.00
2018-02-05T05:44:01.884Z,69.80
2018-02-05T05:46:29.444Z,69.30
2018-02-05T05:48:58.667Z,69.00
2018-02-05T05:51:26.246Z,69.50
2018-02-05T05:53:54.601Z,68.70
2018-02-05T05:56:22.169Z,68.70
2018-02-05T05:58:49.775Z,68.50
2018-02-05T06:01:17.340Z,68.90
2018-02-05T06:03:44.900Z,68.60
2018-02-05T06:06:12.489Z,69.20
2018-02-05T06:08:40.060Z,69.10
2018-02-05T06:11:07.642Z,69.60
2018-02-05T06:13:35.204Z,69.50
2018-02-05T06:16:03.565Z,69.50
2018-02-05T06:18:31.897Z,69.00
2018-02-05T06:20:59.480Z,68.90
2018-02-05T06:23:27.036Z,68.60
2018-02-05T06:25:54.616Z,68.40
2018-02-05T06:28:22.944Z,69.40
2018-02-05T06:30:50.528Z,69.40
2018-02-05T06:33:18.141Z,69.00
2018-02-05T06:35:45.726Z,68.50
2018-02-05T06:38:13.286Z,68.50
2018-02-05T06:40:40.905Z,68.50
2018-02-05T06:43:09.253Z,68.60
2018-02-05T06:45:36.844Z,68.60
2018-02-05T06:48:04.404Z,68.90
2018-02-05T06:50:43.708Z,69.20
2018-02-05T06:53:22.972Z,69.00
2018-02-05T06:55:51.320Z,69.10
2018-02-05T06:58:18.890Z,69.10
2018-02-05T07:00:47.243Z,70.40
2018-02-05T07:03:14.804Z,70.40
2018-02-05T07:05:42.396Z,70.10
2018-02-05T07:08:10.728Z,69.00
2018-02-05T07:10:38.319Z,68.90
2018-02-05T07:13:06.648Z,67.80
2018-02-05T07:15:34.256Z,67.80
2018-02-05T07:18:02.584Z,68.40
2018-02-05T07:20:30.140Z,68.40
2018-02-05T07:22:57.737Z,68.70
2018-02-05T07:25:25.304Z,69.10
2018-02-05T07:27:52.896Z,69.80
2018-02-05T07:30:20.461Z,68.70
2018-02-05T07:32:48.088Z,68.10
2018-02-05T07:35:15.640Z,68.40
2018-02-05T07:37:43.229Z,69.20
2018-02-05T07:40:10.787Z,69.40
2018-02-05T07:42:38.377Z,69.60
2018-02-05T07:45:05.940Z,69.20
2018-02-05T07:47:33.529Z,69.80
2018-02-05T07:50:01.106Z,69.20
2018-02-05T07:52:29.465Z,69.00
2018-02-05T07:54:57.028Z,69.00
2018-02-05T07:57:24.626Z,68.80
2018-02-05T07:59:52.198Z,68.30
2018-02-05T08:02:19.784Z,68.50
2018-02-05T08:04:47.349Z,68.80
2018-02-05T08:07:14.974Z,68.70
2018-02-05T08:09:42.540Z,69.10
2018-02-05T08:12:10.124Z,68.70
2018-02-05T08:14:37.738Z,67.30
2018-02-05T08:17:06.076Z,68.10
2018-02-05T08:19:33.649Z,68.10
2018-02-05T08:22:02.069Z,68.30
2018-02-05T08:24:29.638Z,68.30
2018-02-05T08:26:57.222Z,68.70
2018-02-05T08:29:24.793Z,67.20
2018-02-05T08:31:52.406Z,67.50
2018-02-05T08:34:19.969Z,67.20
2018-02-05T08:36:47.538Z,66.80
2018-02-05T08:39:15.128Z,67.80
2018-02-05T08:41:42.698Z,68.40
2018-02-05T08:44:10.286Z,68.40
2018-02-05T08:46:37.861Z,68.00
2018-02-05T08:49:05.448Z,67.90
2018-02-05T08:51:33.008Z,66.80
2018-02-05T08:54:00.593Z,67.50
2018-02-05T08:56:28.161Z,67.30
2018-02-05T08:58:56.531Z,67.20
2018-02-05T09:01:24.867Z,67.00
2018-02-05T09:03:52.456Z,66.90
2018-02-05T09:06:20.029Z,66.00
2018-02-05T09:08:47.627Z,67.00
2018-02-05T09:11:15.196Z,67.50
2018-02-05T09:13:42.780Z,68.30
2018-02-05T09:16:10.357Z,67.90
2018-02-05T09:18:38.730Z,68.10
2018-02-05T09:21:06.307Z,68.10
2018-02-05T09:23:33.894Z,67.40
2018-02-05T09:26:01.466Z,64.50
2018-02-05T09:28:29.056Z,65.90
2018-02-05T09:30:56.620Z,65.00
2018-02-05T09:33:24.215Z,63.80
2018-02-05T09:35:51.790Z,65.20
2018-02-05T09:38:19.377Z,63.60
2018-02-05T09:40:47.219Z,64.10
2018-02-05T09:43:14.816Z,63.10
2018-02-05T09:45:42.396Z,62.90
2018-02-05T09:48:10.002Z,63.20
2018-02-05T09:50:37.584Z,63.60
2018-02-05T09:53:05.193Z,61.80
2018-02-05T09:55:32.782Z,62.30
2018-02-05T09:58:00.344Z,62.10
2018-02-05T10:00:27.935Z,60.80
2018-02-05T10:02:55.505Z,63.00
2018-02-05T10:05:23.093Z,62.60
2018-02-05T10:07:50.665Z,61.80
2018-02-05T10:10:18.261Z,63.70
2018-02-05T10:12:45.828Z,63.50
2018-02-05T10:15:13.416Z,62.40
2018-02-05T10:17:40.984Z,61.90
2018-02-05T10:20:08.574Z,61.60
2018-02-05T10:22:36.142Z,60.10
2018-02-05T10:25:03.757Z,62.10
2018-02-05T10:27:31.330Z,61.60
2018-02-05T10:29:58.922Z,63.00
2018-02-05T10:32:26.507Z,62.10
2018-02-05T10:34:54.097Z,60.80
2018-02-05T10:37:22.433Z,60.10
2018-02-05T10:39:50.018Z,60.10
2018-02-05T10:42:17.588Z,60.10
2018-02-05T10:44:45.988Z,60.80
2018-02-05T10:47:13.596Z,60.80
2018-02-05T10:49:41.176Z,61.20
2018-02-05T10:52:08.735Z,60.10
2018-02-05T10:54:37.084Z,61.10
2018-02-05T10:57:04.650Z,61.00
2018-02-05T10:59:32.240Z,59.70
2018-02-05T11:01:59.949Z,59.10
2018-02-05T11:04:27.516Z,59.10
2018-02-05T11:06:55.101Z,60.10
2018-02-05T11:09:23.428Z,59.30
2018-02-05T11:11:51.012Z,59.30
2018-02-05T11:14:18.609Z,59.30
2018-02-05T11:16:46.969Z,58.00
2018-02-05T11:19:15.307Z,59.30
2018-02-05T11:21:42.897Z,59.30
2018-02-05T11:24:10.469Z,57.70
2018-02-05T11:26:38.065Z,57.20
2018-02-05T11:29:05.638Z,57.90
2018-02-05T11:31:33.229Z,56.60
2018-02-05T11:34:00.805Z,57.10
2018-02-05T11:36:28.397Z,57.20
2018-02-05T11:38:55.965Z,57.10
2018-02-05T11:41:23.553Z,57.70
2018-02-05T11:43:51.116Z,55.20
2018-02-05T11:46:18.700Z,55.50
2018-02-05T11:48:46.277Z,56.30
2018-02-05T11:51:14.676Z,54.90
2018-02-05T11:53:42.243Z,54.80
2018-02-05T11:56:09.844Z,55.90
2018-02-05T11:58:37.418Z,55.70
2018-02-05T12:01:05.780Z,54.60
2018-02-05T12:03:34.221Z,54.40
2018-02-05T12:06:01.809Z,55.40
2018-02-05T12:08:29.380Z,55.50
2018-02-05T12:10:57.007Z,55.60
2018-02-05T12:13:24.581Z,56.80
2018-02-05T12:15:52.698Z,56.50
2018-02-05T12:18:20.333Z,56.10
2018-02-05T12:20:47.900Z,55.40
2018-02-05T12:23:16.248Z,57.30
2018-02-05T12:25:43.818Z,57.10
2018-02-05T12:28:11.404Z,57.80
2018-02-05T12:30:38.973Z,57.40
2018-02-05T12:33:08.328Z,57.00
2018-02-05T12:35:35.904Z,57.00
2018-02-05T12:38:03.501Z,57.20
2018-02-05T12:40:31.070Z,57.20
2018-02-05T12:42:58.652Z,57.30
2018-02-05T12:45:26.217Z,58.10
2018-02-05T12:47:53.812Z,58.80
2018-02-05T12:50:21.386Z,58.60
2018-02-05T12:52:49.736Z,58.50
2018-02-05T12:55:18.061Z,58.50
2018-02-05T12:57:45.645Z,58.80
2018-02-05T13:00:28.080Z,58.80
2018-02-05T13:03:15.469Z,58.80
2018-02-05T13:05:43.041Z,57.50
2018-02-05T13:08:10.677Z,58.60
2018-02-05T13:10:38.250Z,58.70
2018-02-05T13:13:05.911Z,58.60
2018-02-05T13:15:33.481Z,57.30
2018-02-05T13:18:01.068Z,58.90
2018-02-05T13:20:28.628Z,59.80
2018-02-05T13:22:56.987Z,57.50
2018-02-05T13:25:24.545Z,57.40
2018-02-05T13:27:52.125Z,58.40
2018-02-05T13:30:20.461Z,59.20
2018-02-05T13:32:48.052Z,59.20
2018-02-05T13:35:15.620Z,59.00
2018-02-05T13:37:43.204Z,58.20
2018-02-05T13:40:10.777Z,58.90
2018-02-05T13:42:38.360Z,59.60
2018-02-05T13:45:05.925Z,59.90
2018-02-05T13:47:33.508Z,59.60
2018-02-05T13:50:01.073Z,60.00
2018-02-05T13:52:28.636Z,60.00
2018-02-05T13:54:56.998Z,60.00
2018-02-05T13:57:24.573Z,60.00
2018-02-05T13:59:52.919Z,59.90
2018-02-05T14:02:20.486Z,59.90
2018-02-05T14:04:48.112Z,60.30
2018-02-05T14:07:15.704Z,60.20
2018-02-05T14:09:43.302Z,60.20
2018-02-05T14:12:10.883Z,60.80
2018-02-05T14:14:38.481Z,60.90
2018-02-05T14:17:06.052Z,60.70
2018-02-05T14:19:33.652Z,60.50
2018-02-05T14:22:01.212Z,61.30
2018-02-05T14:24:28.809Z,60.40
2018-02-05T14:26:56.379Z,60.20
2018-02-05T14:29:23.969Z,59.30
2018-02-05T14:31:52.306Z,60.20
2018-02-05T14:34:19.904Z,60.20
2018-02-05T14:36:48.245Z,60.20
2018-02-05T14:39:15.839Z,60.20
2018-02-05T14:41:44.164Z,60.10
2018-02-05T14:44:11.763Z,60.10
2018-02-05T14:46:40.089Z,60.70
2018-02-05T14:49:07.686Z,60.70
2018-02-05T14:51:35.262Z,60.20
2018-02-05T14:54:03.616Z,60.40
2018-02-05T14:56:31.193Z,60.40
2018-02-05T14:58:59.553Z,60.20
2018-02-05T15:01:27.124Z,60.10
2018-02-05T15:03:54.723Z,59.90
2018-02-05T15:06:22.294Z,60.10
2018-02-05T15:08:49.868Z,60.80
2018-02-05T15:11:17.461Z,61.10
2018-02-05T15:13:45.048Z,59.80
2018-02-05T15:16:12.644Z,60.20
2018-02-05T15:18:40.222Z,60.20
2018-02-05T15:21:07.817Z,59.80
2018-02-05T15:23:36.152Z,60.20
2018-02-05T15:26:03.740Z,60.10
2018-02-05T15:28:32.077Z,59.60
2018-02-05T15:31:00.133Z,59.60
2018-02-05T15:33:27.726Z,59.60
2018-02-05T15:35:55.321Z,59.80
2018-02-05T15:38:23.657Z,59.60
2018-02-05T15:40:51.253Z,59.60
2018-02-05T15:43:19.588Z,59.60
2018-02-05T15:45:47.178Z,59.60
2018-02-05T15:48:15.521Z,59.40
2018-02-05T15:50:44.045Z,59.40
2018-02-05T15:53:12.372Z,60.20
2018-02-05T15:55:40.024Z,60.20
2018-02-05T15:58:07.591Z,59.60
2018-02-05T16:00:35.185Z,59.70
2018-02-05T16:03:02.766Z,59.50
2018-02-05T16:05:30.361Z,59.90
2018-02-05T16:07:57.929Z,59.70
2018-02-05T16:10:26.067Z,60.20
2018-02-05T16:12:53.689Z,60.30
2018-02-05T16:15:21.292Z,60.00
2018-02-05T16:17:48.906Z,59.80
2018-02-05T16:20:17.209Z,59.80
2018-02-05T16:22:45.561Z,60.80
2018-02-05T16:25:13.157Z,60.70
2018-02-05T16:27:40.753Z,60.70
2018-02-05T16:30:08.330Z,60.60
2018-02-05T16:32:35.922Z,60.80
2018-02-05T16:35:03.489Z,60.90
2018-02-05T16:37:31.850Z,60.20
2018-02-05T16:40:00.177Z,60.00
2018-02-05T16:42:27.777Z,60.00
2018-02-05T16:44:55.374Z,59.70
2018-02-05T16:47:23.847Z,60.20
2018-02-05T16:49:52.988Z,59.60
2018-02-05T16:52:20.610Z,59.40
2018-02-05T16:54:48.172Z,59.60
2018-02-05T16:57:15.756Z,59.80
2018-02-05T16:59:43.330Z,60.60
2018-02-05T17:02:10.930Z,61.30
2018-02-05T17:04:39.269Z,61.80
2018-02-05T17:07:06.897Z,61.70
2018-02-05T17:09:34.466Z,61.40
2018-02-05T17:12:02.130Z,60.60
2018-02-05T17:14:29.705Z,60.10
2018-02-05T17:16:57.288Z,60.50
2018-02-05T17:19:25.626Z,61.20
2018-02-05T17:21:53.216Z,61.20
2018-02-05T17:24:20.772Z,61.00
2018-02-05T17:26:48.365Z,59.80
2018-02-05T17:29:15.940Z,60.00
2018-02-05T17:31:43.540Z,59.60
2018-02-05T17:34:11.103Z,59.60
2018-02-05T17:36:38.709Z,60.40
2018-02-05T17:39:06.286Z,61.10
2018-02-05T17:41:33.876Z,61.70
2018-02-05T17:44:01.487Z,61.20
2018-02-05T17:46:29.044Z,60.70
2018-02-05T17:48:56.637Z,61.00
2018-02-05T17:51:24.210Z,61.70
2018-02-05T17:53:51.806Z,61.60
2018-02-05T17:56:19.381Z,61.50
2018-02-05T17:58:46.976Z,61.90
2018-02-05T18:01:14.536Z,61.80
2018-02-05T18:03:42.124Z,61.70
2018-02-05T18:06:09.684Z,61.60
2018-02-05T18:08:37.318Z,61.40
2018-02-05T18:11:04.884Z,62.00
2018-02-05T18:13:32.464Z,62.40
2018-02-05T18:16:00.038Z,62.20
2018-02-05T18:18:27.626Z,62.10
2018-02-05T18:20:55.184Z,62.10
2018-02-05T18:23:22.951Z,61.90
2018-02-05T18:25:50.518Z,62.00
2018-02-05T18:28:18.100Z,62.60
2018-02-05T18:30:46.106Z,62.20
2018-02-05T18:33:13.706Z,62.30
2018-02-05T18:35:41.273Z,62.30
2018-02-05T18:38:08.858Z,62.50
2018-02-05T18:40:36.429Z,62.20
2018-02-05T18:43:04.794Z,62.10
2018-02-05T18:45:32.374Z,62.10
2018-02-05T18:47:59.969Z,62.20
2018-02-05T18:50:27.562Z,62.20
2018-02-05T18:52:55.149Z,61.70
2018-02-05T18:55:23.510Z,61.60
2018-02-05T18:57:51.076Z,61.60
2018-02-05T19:00:30.477Z,61.10
2018-02-05T19:02:58.050Z,61.40
2018-02-05T19:05:25.636Z,61.70
2018-02-05T19:07:53.973Z,62.00
2018-02-05T19:10:21.587Z,62.00
2018-02-05T19:12:49.893Z,62.20
2018-02-05T19:15:17.505Z,62.50
2018-02-05T19:17:45.082Z,62.70
2018-02-05T19:20:13.446Z,61.50
2018-02-05T19:22:41.780Z,61.10
2018-02-05T19:25:09.377Z,61.10
2018-02-05T19:27:36.961Z,61.50
2018-02-05T19:30:04.760Z,62.00
2018-02-05T19:32:32.324Z,61.70
2018-02-05T19:34:59.954Z,60.90
2018-02-05T19:37:27.527Z,61.50
2018-02-05T19:39:55.108Z,61.80
2018-02-05T19:42:22.710Z,60.20
2018-02-05T19:44:51.077Z,61.10
2018-02-05T19:47:19.418Z,61.00
2018-02-05T19:49:47.008Z,61.00
2018-02-05T19:52:14.577Z,61.20
2018-02-05T19:54:42.160Z,60.70
2018-02-05T19:57:09.730Z,60.00
2018-02-05T19:59:37.322Z,60.20
2018-02-05T20:02:04.884Z,60.40
2018-02-05T20:04:32.473Z,60.20
2018-02-05T20:07:00.091Z,60.40
2018-02-05T20:09:27.652Z,60.60
2018-02-05T20:11:55.214Z,60.10
2018-02-05T20:14:22.819Z,60.50
2018-02-05T20:16:50.412Z,61.10
2018-02-05T20:19:18.019Z,61.10
2018-02-05T20:21:45.619Z,61.40
2018-02-05T20:24:13.189Z,62.00
2018-02-05T20:26:40.781Z,61.40
2018-02-05T20:29:08.361Z,60.60
2018-02-05T20:31:36.716Z,60.70
2018-02-05T20:34:04.354Z,60.70
2018-02-05T20:36:31.940Z,60.60
2018-02-05T20:38:59.517Z,60.70
2018-02-05T20:41:27.110Z,60.50
2018-02-05T20:43:54.732Z,60.70
2018-02-05T20:46:22.323Z,60.80
2018-02-05T20:48:49.897Z,60.60
2018-02-05T20:51:17.494Z,60.00
2018-02-05T20:53:45.077Z,59.60
2018-02-05T20:56:13.471Z,59.70
2018-02-05T20:58:41.033Z,59.60
2018-02-05T21:01:08.686Z,59.90
2018-02-05T21:03:37.077Z,60.00
2018-02-05T21:06:04.706Z,60.00
2018-02-05T21:08:32.278Z,60.00
2018-02-05T21:11:00.628Z,59.40
2018-02-05T21:13:28.205Z,59.40
2018-02-05T21:15:55.795Z,59.70
2018-02-05T21:18:23.401Z,59.40
2018-02-05T21:20:50.998Z,59.30
2018-02-05T21:23:19.366Z,59.70
2018-02-05T21:25:46.956Z,59.70
2018-02-05T21:28:14.522Z,59.20
2018-02-05T21:30:42.080Z,58.90
2018-02-05T21:33:09.670Z,58.60
2018-02-05T21:35:37.235Z,59.00
2018-02-05T21:38:04.823Z,58.90
2018-02-05T21:40:33.157Z,59.00
2018-02-05T21:43:00.754Z,59.00
2018-02-05T21:45:28.330Z,59.40
2018-02-05T21:47:55.923Z,59.30
2018-02-05T21:50:23.493Z,59.10
2018-02-05T21:52:51.098Z,59.30
2018-02-05T21:55:19.429Z,59.60
2018-02-05T21:57:47.057Z,59.40
2018-02-05T22:00:14.622Z,59.90
2018-02-05T22:02:42.255Z,60.00
2018-02-05T22:05:10.607Z,60.10
2018-02-05T22:07:38.197Z,60.00
2018-02-05T22:10:05.770Z,59.40
2018-02-05T22:12:33.369Z,60.30
2018-02-05T22:15:00.937Z,60.00
2018-02-05T22:17:28.535Z,60.80
2018-02-05T22:19:56.115Z,60.80
2018-02-05T22:22:23.705Z,61.10
2018-02-05T22:24:51.271Z,61.60
2018-02-05T22:27:18.867Z,62.80
2018-02-05T22:29:47.253Z,62.50
2018-02-05T22:32:14.838Z,62.50
2018-02-05T22:34:42.440Z,62.70
2018-02-05T22:37:10.888Z,63.00
2018-02-05T22:39:38.453Z,63.40
2018-02-05T22:42:06.012Z,63.00
2018-02-05T22:44:33.608Z,62.90
2018-02-05T22:47:01.178Z,63.60
2018-02-05T22:49:28.769Z,63.40
2018-02-05T22:51:56.336Z,63.80
2018-02-05T22:54:23.929Z,63.70
2018-02-05T22:56:51.496Z,63.30
2018-02-05T22:59:19.844Z,62.30
2018-02-05T23:01:47.418Z,62.90
2018-02-05T23:04:15.015Z,61.70
2018-02-05T23:06:42.589Z,61.70
2018-02-05T23:09:10.184Z,61.40
2018-02-05T23:11:37.762Z,61.90
2018-02-05T23:14:05.406Z,62.20
2018-02-05T23:16:32.942Z,62.50
2018-02-05T23:19:00.539Z,62.60
2018-02-05T23:21:28.121Z,62.40
2018-02-05T23:23:56.490Z,62.50
2018-02-05T23:26:24.821Z,62.50
2018-02-05T23:28:52.404Z,62.40
2018-02-05T23:31:19.973Z,62.60
2018-02-05T23:33:47.556Z,62.40
2018-02-05T23:36:15.133Z,62.70
2018-02-05T23:38:42.727Z,62.70
2018-02-05T23:41:10.308Z,62.90
2018-02-05T23:43:37.898Z,63.10
2018-02-05T23:46:05.481Z,63.10
2018-02-05T23:48:33.081Z,63.20
2018-02-05T23:51:00.687Z,62.90
2018-02-05T23:53:28.265Z,63.10
2018-02-05T23:55:55.836Z,63.20
2018-02-05T23:58:23.437Z,63.20
